createdAt,value
2022-08-16T00:00:38.658Z,0.00
2022-08-16T00:01:33.977Z,0.00
2022-08-16T00:02:31.328Z,0.00
2022-08-16T00:03:30.453Z,0.00
2022-08-16T00:04:38.414Z,0.00
2022-08-16T00:05:34.976Z,0.00
2022-08-16T00:06:30.393Z,0.00
2022-08-16T00:07:30.381Z,0.00
2022-08-16T00:08:36.005Z,0.00
2022-08-16T00:09:31.928Z,0.00
2022-08-16T00:10:37.536Z,0.00
2022-08-16T00:11:30.334Z,0.00
2022-08-16T00:12:30.428Z,0.00
2022-08-16T00:13:30.338Z,0.00
2022-08-16T00:14:30.445Z,0.00
2022-08-16T00:15:51.626Z,0.00
2022-08-16T00:17:00.657Z,0.00
2022-08-16T00:17:56.315Z,0.00
2022-08-16T00:18:31.558Z,0.00
2022-08-16T00:19:41.546Z,0.00
2022-08-16T00:20:32.042Z,0.00
2022-08-16T00:21:31.176Z,0.00
2022-08-16T00:22:36.619Z,0.00
2022-08-16T00:23:39.985Z,0.00
2022-08-16T00:24:33.170Z,0.00
2022-08-16T00:26:33.637Z,0.00
2022-08-16T00:26:35.154Z,0.00
2022-08-16T00:27:31.629Z,0.00
2022-08-16T00:28:36.516Z,0.00
2022-08-16T00:29:30.264Z,0.00
2022-08-16T00:30:30.135Z,0.00
2022-08-16T00:31:59.334Z,0.00
2022-08-16T00:32:32.941Z,0.00
2022-08-16T00:33:30.793Z,0.00
2022-08-16T00:34:43.569Z,0.00
2022-08-16T00:35:31.583Z,0.00
2022-08-16T00:36:30.149Z,0.00
2022-08-16T00:37:57.897Z,0.00
2022-08-16T00:38:41.326Z,0.00
2022-08-16T00:39:31.570Z,0.00
2022-08-16T00:40:36.838Z,0.00
2022-08-16T00:41:31.729Z,0.00
2022-08-16T00:42:32.203Z,0.00
2022-08-16T00:43:42.549Z,0.00
2022-08-16T00:44:31.867Z,0.00
2022-08-16T00:45:29.907Z,0.00
2022-08-16T00:46:53.951Z,0.00
2022-08-16T00:47:30.932Z,0.00
2022-08-16T00:48:44.299Z,0.00
2022-08-16T00:49:44.426Z,0.00
2022-08-16T00:50:36.573Z,0.00
2022-08-16T00:51:31.428Z,0.00
2022-08-16T00:52:37.900Z,0.00
2022-08-16T00:53:31.320Z,0.00
2022-08-16T00:54:29.805Z,0.00
2022-08-16T00:55:37.717Z,0.00
2022-08-16T00:56:57.968Z,0.00
2022-08-16T00:57:58.282Z,0.00
2022-08-16T00:58:34.529Z,0.00
2022-08-16T00:59:29.730Z,0.00
2022-08-16T01:00:29.760Z,0.00
2022-08-16T01:01:29.788Z,0.00
2022-08-16T01:02:36.162Z,0.00
2022-08-16T01:03:32.679Z,0.00
2022-08-16T01:04:35.186Z,0.00
2022-08-16T01:05:29.648Z,0.00
2022-08-16T01:06:40.125Z,0.00
2022-08-16T01:07:50.742Z,0.00
2022-08-16T01:08:38.427Z,0.00
2022-08-16T01:09:33.302Z,0.00
2022-08-16T01:10:31.848Z,0.00
2022-08-16T01:11:29.706Z,0.00
2022-08-16T01:12:29.561Z,0.00
2022-08-16T01:13:35.979Z,0.00
2022-08-16T01:14:30.108Z,0.00
2022-08-16T01:15:30.233Z,0.00
2022-08-16T01:16:29.533Z,0.00
2022-08-16T01:17:29.506Z,0.00
2022-08-16T01:18:39.918Z,0.00
2022-08-16T01:19:37.556Z,0.00
2022-08-16T01:20:30.349Z,0.00
2022-08-16T01:21:33.777Z,0.00
2022-08-16T01:22:48.000Z,0.00
2022-08-16T01:24:00.892Z,0.00
2022-08-16T01:24:44.434Z,0.00
2022-08-16T01:25:36.703Z,0.00
2022-08-16T01:26:34.658Z,0.00
2022-08-16T01:27:30.907Z,0.00
2022-08-16T01:28:30.612Z,0.00
2022-08-16T01:29:44.057Z,0.00
2022-08-16T01:30:34.479Z,0.00
2022-08-16T01:31:37.607Z,0.00
2022-08-16T01:32:33.582Z,0.00
2022-08-16T01:33:33.238Z,0.00
2022-08-16T01:34:30.813Z,0.00
2022-08-16T01:35:29.277Z,0.00
2022-08-16T01:36:37.393Z,0.00
2022-08-16T01:37:35.792Z,0.00
2022-08-16T01:38:30.760Z,0.00
2022-08-16T01:39:29.570Z,0.00
2022-08-16T01:40:29.203Z,0.00
2022-08-16T01:41:41.922Z,0.00
2022-08-16T01:42:30.677Z,0.00
2022-08-16T01:43:29.506Z,0.00
2022-08-16T01:44:37.515Z,0.00
2022-08-16T01:45:39.767Z,0.00
2022-08-16T01:46:40.130Z,0.00
2022-08-16T01:47:29.396Z,0.00
2022-08-16T01:48:29.160Z,0.00
2022-08-16T01:49:43.494Z,0.00
2022-08-16T01:50:42.549Z,0.00
2022-08-16T01:51:39.259Z,0.00
2022-08-16T01:52:30.559Z,0.00
2022-08-16T01:53:29.332Z,0.00
2022-08-16T01:54:30.923Z,0.00
2022-08-16T01:55:35.635Z,0.00
2022-08-16T01:56:30.590Z,0.00
2022-08-16T01:57:35.555Z,0.00
2022-08-16T01:58:28.992Z,0.00
2022-08-16T01:59:28.957Z,0.00
2022-08-16T02:00:29.807Z,0.00
2022-08-16T02:01:29.021Z,0.00
2022-08-16T02:02:36.186Z,0.00
2022-08-16T02:03:30.679Z,0.00
2022-08-16T02:04:48.341Z,0.00
2022-08-16T02:05:30.362Z,0.00
2022-08-16T02:06:33.775Z,0.00
2022-08-16T02:07:36.685Z,0.00
2022-08-16T02:08:33.285Z,0.00
2022-08-16T02:09:28.867Z,0.00
2022-08-16T02:10:30.323Z,0.00
2022-08-16T02:11:47.704Z,0.00
2022-08-16T02:12:50.883Z,0.00
2022-08-16T02:13:36.033Z,0.00
2022-08-16T02:14:30.268Z,0.00
2022-08-16T02:15:28.752Z,0.00
2022-08-16T02:16:28.732Z,0.00
2022-08-16T02:17:29.540Z,0.00
2022-08-16T02:18:28.680Z,0.00
2022-08-16T02:19:59.330Z,0.00
2022-08-16T02:20:29.701Z,0.00
2022-08-16T02:21:31.435Z,0.00
2022-08-16T02:22:35.042Z,0.00
2022-08-16T02:23:30.146Z,0.00
2022-08-16T02:24:31.732Z,0.00
2022-08-16T02:25:52.444Z,0.00
2022-08-16T02:26:34.263Z,0.00
2022-08-16T02:27:28.638Z,0.00
2022-08-16T02:28:28.638Z,0.00
2022-08-16T02:29:31.857Z,0.00
2022-08-16T02:30:37.929Z,0.00
2022-08-16T02:32:03.913Z,0.00
2022-08-16T02:32:51.027Z,0.00
2022-08-16T02:33:43.983Z,0.00
2022-08-16T02:34:34.788Z,0.00
2022-08-16T02:35:30.034Z,0.00
2022-08-16T02:36:47.400Z,0.00
2022-08-16T02:37:51.590Z,0.00
2022-08-16T02:38:31.567Z,0.00
2022-08-16T02:39:30.266Z,0.00
2022-08-16T02:40:28.491Z,0.00
2022-08-16T02:41:28.457Z,0.00
2022-08-16T02:42:35.018Z,0.00
2022-08-16T02:43:29.464Z,0.00
2022-08-16T02:44:28.682Z,0.00
2022-08-16T02:45:28.662Z,0.00
2022-08-16T02:46:30.030Z,0.00
2022-08-16T02:48:00.455Z,0.00
2022-08-16T02:48:30.908Z,0.00
2022-08-16T02:49:58.339Z,0.00
2022-08-16T02:50:55.374Z,0.00
2022-08-16T02:51:29.315Z,0.00
2022-08-16T02:52:29.450Z,0.00
2022-08-16T02:53:34.525Z,0.00
2022-08-16T02:54:28.239Z,0.00
2022-08-16T02:55:40.708Z,0.00
2022-08-16T02:56:33.637Z,0.00
2022-08-16T02:57:29.179Z,0.00
2022-08-16T02:58:29.968Z,0.00
2022-08-16T02:59:41.431Z,0.00
2022-08-16T03:00:34.574Z,0.00
2022-08-16T03:01:33.734Z,0.00
2022-08-16T03:02:31.748Z,0.00
2022-08-16T03:04:39.426Z,0.00
2022-08-16T03:04:50.742Z,0.00
2022-08-16T03:05:30.905Z,0.00
2022-08-16T03:06:42.194Z,0.00
2022-08-16T03:07:29.584Z,0.00
2022-08-16T03:08:52.097Z,0.00
2022-08-16T03:09:35.385Z,0.00
2022-08-16T03:10:33.484Z,0.00
2022-08-16T03:11:35.323Z,0.00
2022-08-16T03:12:30.448Z,0.00
2022-08-16T03:13:29.565Z,0.00
2022-08-16T03:14:34.277Z,0.00
2022-08-16T03:15:28.049Z,0.00
2022-08-16T03:16:38.025Z,0.00
2022-08-16T03:17:32.485Z,0.00
2022-08-16T03:18:34.206Z,0.00
2022-08-16T03:19:48.174Z,0.00
2022-08-16T03:20:35.169Z,0.00
2022-08-16T03:21:27.931Z,4.00
2022-08-16T03:22:29.648Z,4.00
2022-08-16T03:23:35.893Z,4.00
2022-08-16T03:24:29.928Z,0.00
2022-08-16T03:25:43.939Z,4.00
2022-08-16T03:26:35.653Z,4.00
2022-08-16T03:27:30.931Z,8.00
2022-08-16T03:28:28.815Z,4.00
2022-08-16T03:29:30.149Z,8.00
2022-08-16T03:30:27.791Z,8.00
2022-08-16T03:31:34.826Z,8.00
2022-08-16T03:33:12.282Z,12.00
2022-08-16T03:34:12.268Z,12.00
2022-08-16T03:35:12.259Z,16.00
2022-08-16T03:36:30.001Z,16.00
2022-08-16T03:37:23.149Z,24.00
2022-08-16T03:38:32.452Z,24.00
2022-08-16T03:39:14.933Z,28.00
2022-08-16T03:40:31.655Z,32.00
2022-08-16T03:41:24.478Z,32.00
2022-08-16T03:42:20.390Z,40.00
2022-08-16T03:43:21.621Z,44.00
2022-08-16T03:44:12.151Z,48.00
2022-08-16T03:45:13.160Z,56.00
2022-08-16T03:46:12.103Z,60.00
2022-08-16T03:47:13.099Z,68.00
2022-08-16T03:48:15.184Z,76.00
2022-08-16T03:49:20.418Z,80.00
2022-08-16T03:50:25.807Z,88.00
2022-08-16T03:51:13.561Z,100.00
2022-08-16T03:52:12.023Z,108.00
2022-08-16T03:53:12.032Z,120.00
2022-08-16T03:54:19.221Z,128.00
2022-08-16T03:55:15.256Z,140.00
2022-08-16T03:56:19.858Z,152.00
2022-08-16T03:57:15.683Z,160.00
2022-08-16T03:58:12.085Z,168.00
2022-08-16T03:59:18.311Z,180.00
2022-08-16T04:00:11.967Z,192.00
2022-08-16T04:01:12.974Z,204.00
2022-08-16T04:02:22.175Z,212.00
2022-08-16T04:03:13.652Z,228.00
2022-08-16T04:04:30.929Z,240.00
2022-08-16T04:05:13.367Z,252.00
2022-08-16T04:06:11.855Z,264.00
2022-08-16T04:07:11.849Z,276.00
2022-08-16T04:08:22.315Z,292.00
2022-08-16T04:09:13.364Z,304.00
2022-08-16T04:10:35.953Z,316.00
2022-08-16T04:11:16.604Z,332.00
2022-08-16T04:12:54.510Z,344.00
2022-08-16T04:13:20.640Z,360.00
2022-08-16T04:14:31.145Z,372.00
2022-08-16T04:15:19.611Z,388.00
2022-08-16T04:16:27.623Z,400.00
2022-08-16T04:17:13.567Z,416.00
2022-08-16T04:18:11.695Z,432.00
2022-08-16T04:19:11.954Z,444.00
2022-08-16T04:20:31.637Z,460.00
2022-08-16T04:21:29.103Z,472.00
2022-08-16T04:22:13.131Z,488.00
2022-08-16T04:23:12.594Z,504.00
2022-08-16T04:24:11.674Z,524.00
2022-08-16T04:25:11.639Z,540.00
2022-08-16T04:26:16.838Z,556.00
2022-08-16T04:27:19.421Z,572.00
2022-08-16T04:28:52.122Z,588.00
2022-08-16T04:29:23.811Z,604.00
2022-08-16T04:30:13.129Z,616.00
2022-08-16T04:31:13.123Z,636.00
2022-08-16T04:32:11.502Z,656.00
2022-08-16T04:33:17.813Z,676.00
2022-08-16T04:34:14.470Z,692.00
2022-08-16T04:35:15.509Z,708.00
2022-08-16T04:36:12.407Z,724.00
2022-08-16T04:37:13.009Z,736.00
2022-08-16T04:38:21.249Z,748.00
2022-08-16T04:39:11.450Z,760.00
2022-08-16T04:40:11.489Z,772.00
2022-08-16T04:41:13.211Z,788.00
2022-08-16T04:42:11.697Z,804.00
2022-08-16T04:43:11.373Z,820.00
2022-08-16T04:44:52.449Z,832.00
2022-08-16T04:45:13.190Z,844.00
2022-08-16T04:46:32.057Z,860.00
2022-08-16T04:47:35.824Z,876.00
2022-08-16T04:48:11.299Z,888.00
2022-08-16T04:49:13.415Z,904.00
2022-08-16T04:50:18.010Z,920.00
2022-08-16T04:51:12.364Z,936.00
2022-08-16T04:52:34.850Z,952.00
2022-08-16T04:53:12.259Z,964.00
2022-08-16T04:54:11.228Z,980.00
2022-08-16T04:55:11.980Z,996.00
2022-08-16T04:56:18.485Z,1012.00
2022-08-16T04:57:11.194Z,1028.00
2022-08-16T04:58:43.610Z,1044.00
2022-08-16T04:59:12.556Z,1056.00
2022-08-16T05:00:32.717Z,1072.00
2022-08-16T05:01:12.278Z,1088.00
2022-08-16T05:02:42.535Z,1104.00
2022-08-16T05:03:12.189Z,1120.00
2022-08-16T05:04:19.526Z,1132.00
2022-08-16T05:05:17.065Z,1152.00
2022-08-16T05:06:11.085Z,1164.00
2022-08-16T05:07:20.232Z,1172.00
2022-08-16T05:08:29.177Z,1188.00
2022-08-16T05:09:12.528Z,1204.00
2022-08-16T05:10:19.813Z,1220.00
2022-08-16T05:11:12.505Z,1232.00
2022-08-16T05:12:11.289Z,1240.00
2022-08-16T05:13:15.484Z,1244.00
2022-08-16T05:14:41.975Z,1252.00
2022-08-16T05:15:11.972Z,1260.00
2022-08-16T05:16:11.879Z,1268.00
2022-08-16T05:17:12.756Z,1280.00
2022-08-16T05:18:15.392Z,1284.00
2022-08-16T05:19:18.720Z,1288.00
2022-08-16T05:20:38.885Z,1308.00
2022-08-16T05:21:12.576Z,1328.00
2022-08-16T05:22:18.058Z,1344.00
2022-08-16T05:23:13.577Z,1360.00
2022-08-16T05:24:11.780Z,1376.00
2022-08-16T05:25:18.031Z,1392.00
2022-08-16T05:26:19.537Z,1408.00
2022-08-16T05:27:12.309Z,1424.00
2022-08-16T05:28:10.857Z,1428.00
2022-08-16T05:29:15.651Z,1432.00
2022-08-16T05:30:35.629Z,1436.00
2022-08-16T05:31:18.025Z,1444.00
2022-08-16T05:32:32.502Z,1468.00
2022-08-16T05:33:16.510Z,1472.00
2022-08-16T05:34:19.644Z,1484.00
2022-08-16T05:35:12.227Z,1480.00
2022-08-16T05:36:17.000Z,1488.00
2022-08-16T05:37:12.761Z,1508.00
2022-08-16T05:38:32.697Z,1520.00
2022-08-16T05:39:11.659Z,1540.00
2022-08-16T05:40:13.211Z,1548.00
2022-08-16T05:41:17.125Z,1560.00
2022-08-16T05:42:10.900Z,1572.00
2022-08-16T05:43:11.978Z,1580.00
2022-08-16T05:44:23.684Z,1584.00
2022-08-16T05:45:12.829Z,1584.00
2022-08-16T05:46:29.731Z,1588.00
2022-08-16T05:47:15.331Z,1600.00
2022-08-16T05:48:10.528Z,1612.00
2022-08-16T05:49:10.529Z,1620.00
2022-08-16T05:50:19.370Z,1620.00
2022-08-16T05:51:38.223Z,1620.00
2022-08-16T05:52:13.587Z,1624.00
2022-08-16T05:53:10.508Z,1620.00
2022-08-16T05:54:11.378Z,1628.00
2022-08-16T05:55:10.486Z,1632.00
2022-08-16T05:56:10.470Z,1648.00
2022-08-16T05:57:18.415Z,1664.00
2022-08-16T05:58:31.644Z,1668.00
2022-08-16T05:59:11.385Z,1684.00
2022-08-16T06:00:10.381Z,1692.00
2022-08-16T06:01:11.740Z,1692.00
2022-08-16T06:02:17.431Z,1676.00
2022-08-16T06:03:13.014Z,1700.00
2022-08-16T06:04:12.907Z,1704.00
2022-08-16T06:05:10.995Z,1716.00
2022-08-16T06:06:11.584Z,1720.00
2022-08-16T06:07:26.225Z,1728.00
2022-08-16T06:08:31.681Z,1736.00
2022-08-16T06:09:11.940Z,1740.00
2022-08-16T06:10:10.280Z,1740.00
2022-08-16T06:11:13.325Z,1736.00
2022-08-16T06:12:26.835Z,1744.00
2022-08-16T06:13:11.703Z,1748.00
2022-08-16T06:14:11.733Z,1752.00
2022-08-16T06:15:10.427Z,1760.00
2022-08-16T06:16:18.517Z,1768.00
2022-08-16T06:17:12.321Z,1768.00
2022-08-16T06:18:16.448Z,1772.00
2022-08-16T06:19:11.263Z,1772.00
2022-08-16T06:20:10.158Z,1772.00
2022-08-16T06:21:10.974Z,1772.00
2022-08-16T06:22:10.462Z,1776.00
2022-08-16T06:23:17.047Z,1788.00
2022-08-16T06:24:53.673Z,1800.00
2022-08-16T06:25:12.194Z,1800.00
2022-08-16T06:26:10.093Z,1808.00
2022-08-16T06:27:10.091Z,1812.00
2022-08-16T06:28:17.034Z,1816.00
2022-08-16T06:29:11.039Z,1824.00
2022-08-16T06:30:19.786Z,1828.00
2022-08-16T06:31:12.167Z,1836.00
2022-08-16T06:32:09.978Z,1844.00
2022-08-16T06:33:12.258Z,1852.00
2022-08-16T06:34:54.889Z,1864.00
2022-08-16T06:35:17.214Z,1872.00
2022-08-16T06:36:09.959Z,1872.00
2022-08-16T06:37:14.144Z,1884.00
2022-08-16T06:38:31.922Z,1888.00
2022-08-16T06:39:10.889Z,1884.00
2022-08-16T06:40:17.130Z,1888.00
2022-08-16T06:41:14.078Z,1892.00
2022-08-16T06:42:10.521Z,1892.00
2022-08-16T06:43:10.001Z,1884.00
2022-08-16T06:44:20.764Z,1892.00
2022-08-16T06:45:13.130Z,1896.00
2022-08-16T06:46:16.172Z,1908.00
2022-08-16T06:47:10.614Z,1904.00
2022-08-16T06:48:09.773Z,1908.00
2022-08-16T06:49:11.178Z,1904.00
2022-08-16T06:50:10.397Z,1904.00
2022-08-16T06:51:17.476Z,1904.00
2022-08-16T06:52:57.255Z,1916.00
2022-08-16T06:53:11.614Z,1920.00
2022-08-16T06:54:14.045Z,1924.00
2022-08-16T06:55:12.986Z,1924.00
2022-08-16T06:56:23.430Z,1928.00
2022-08-16T06:57:16.500Z,1940.00
2022-08-16T06:58:22.117Z,1952.00
2022-08-16T06:59:11.398Z,1956.00
2022-08-16T07:00:13.102Z,1960.00
2022-08-16T07:01:21.378Z,1980.00
2022-08-16T07:02:32.939Z,1976.00
2022-08-16T07:03:27.854Z,1980.00
2022-08-16T07:04:12.146Z,1980.00
2022-08-16T07:05:15.568Z,1984.00
2022-08-16T07:06:11.018Z,1976.00
2022-08-16T07:07:10.097Z,1976.00
2022-08-16T07:08:09.496Z,1976.00
2022-08-16T07:09:10.442Z,1972.00
2022-08-16T07:10:09.760Z,1976.00
2022-08-16T07:11:09.514Z,1984.00
2022-08-16T07:12:09.586Z,1988.00
2022-08-16T07:13:26.539Z,1984.00
2022-08-16T07:14:24.375Z,1984.00
2022-08-16T07:15:18.874Z,1976.00
2022-08-16T07:16:10.895Z,1984.00
2022-08-16T07:17:12.727Z,1984.00
2022-08-16T07:18:10.348Z,1984.00
2022-08-16T07:19:17.729Z,1992.00
2022-08-16T07:20:35.533Z,1992.00
2022-08-16T07:21:10.594Z,1992.00
2022-08-16T07:22:30.496Z,1992.00
2022-08-16T07:23:13.412Z,1988.00
2022-08-16T07:24:29.766Z,1984.00
2022-08-16T07:25:12.426Z,1984.00
2022-08-16T07:26:09.248Z,1992.00
2022-08-16T07:27:12.552Z,2004.00
2022-08-16T07:28:09.285Z,2004.00
2022-08-16T07:29:09.247Z,2012.00
2022-08-16T07:30:45.414Z,2012.00
2022-08-16T07:31:13.168Z,2016.00
2022-08-16T07:32:09.217Z,2020.00
2022-08-16T07:33:09.160Z,2032.00
2022-08-16T07:34:10.215Z,2040.00
2022-08-16T07:35:17.259Z,2048.00
2022-08-16T07:36:09.751Z,2044.00
2022-08-16T07:37:09.543Z,2052.00
2022-08-16T07:38:09.124Z,2068.00
2022-08-16T07:39:15.358Z,2080.00
2022-08-16T07:40:11.174Z,2088.00
2022-08-16T07:41:15.409Z,2092.00
2022-08-16T07:42:09.044Z,2088.00
2022-08-16T07:43:10.541Z,2092.00
2022-08-16T07:44:16.411Z,2088.00
2022-08-16T07:45:10.635Z,2084.00
2022-08-16T07:46:39.167Z,2080.00
2022-08-16T07:47:10.269Z,2080.00
2022-08-16T07:48:11.574Z,2088.00
2022-08-16T07:49:11.339Z,2096.00
2022-08-16T07:50:09.042Z,2100.00
2022-08-16T07:51:17.217Z,2100.00
2022-08-16T07:52:18.759Z,2112.00
2022-08-16T07:53:10.453Z,2120.00
2022-08-16T07:54:09.920Z,2124.00
2022-08-16T07:55:09.873Z,2124.00
2022-08-16T07:56:15.498Z,2128.00
2022-08-16T07:57:11.451Z,2132.00
2022-08-16T07:58:09.164Z,2140.00
2022-08-16T07:59:10.346Z,2152.00
2022-08-16T08:00:08.838Z,2152.00
2022-08-16T08:01:12.658Z,2156.00
2022-08-16T08:02:19.996Z,2160.00
2022-08-16T08:03:11.379Z,2164.00
2022-08-16T08:04:08.764Z,2160.00
2022-08-16T08:05:08.764Z,2164.00
2022-08-16T08:06:10.423Z,2156.00
2022-08-16T08:07:08.981Z,2144.00
2022-08-16T08:08:51.128Z,2152.00
2022-08-16T08:09:09.693Z,2152.00
2022-08-16T08:10:11.127Z,2140.00
2022-08-16T08:11:09.191Z,2148.00
2022-08-16T08:12:08.690Z,2152.00
2022-08-16T08:13:10.216Z,2156.00
2022-08-16T08:14:29.978Z,2148.00
2022-08-16T08:15:10.486Z,2156.00
2022-08-16T08:16:08.612Z,2164.00
2022-08-16T08:17:10.103Z,2168.00
2022-08-16T08:18:30.058Z,2172.00
2022-08-16T08:19:16.513Z,2168.00
2022-08-16T08:20:08.576Z,2164.00
2022-08-16T08:21:08.645Z,2164.00
2022-08-16T08:22:08.565Z,2172.00
2022-08-16T08:23:08.559Z,2188.00
2022-08-16T08:24:16.043Z,2188.00
2022-08-16T08:25:08.508Z,2192.00
2022-08-16T08:26:17.522Z,2188.00
2022-08-16T08:27:10.338Z,2192.00
2022-08-16T08:28:10.891Z,2192.00
2022-08-16T08:29:08.617Z,2200.00
2022-08-16T08:30:50.310Z,2204.00
2022-08-16T08:31:09.468Z,2224.00
2022-08-16T08:32:59.690Z,2236.00
2022-08-16T08:33:09.385Z,2236.00
2022-08-16T08:34:08.444Z,2240.00
2022-08-16T08:35:14.997Z,2244.00
2022-08-16T08:36:08.353Z,2260.00
2022-08-16T08:37:08.380Z,2272.00
2022-08-16T08:38:09.373Z,2284.00
2022-08-16T08:39:09.295Z,2292.00
2022-08-16T08:40:08.416Z,2292.00
2022-08-16T08:41:14.617Z,2296.00
2022-08-16T08:42:08.320Z,2312.00
2022-08-16T08:43:11.975Z,2324.00
2022-08-16T08:44:29.108Z,2332.00
2022-08-16T08:45:20.200Z,2324.00
2022-08-16T08:46:18.124Z,2344.00
2022-08-16T08:47:12.267Z,2344.00
2022-08-16T08:48:08.192Z,2340.00
2022-08-16T08:49:09.210Z,2336.00
2022-08-16T08:50:08.311Z,2324.00
2022-08-16T08:51:08.951Z,2320.00
2022-08-16T08:52:34.966Z,2336.00
2022-08-16T08:53:17.288Z,2356.00
2022-08-16T08:54:09.421Z,2368.00
2022-08-16T08:55:09.511Z,2384.00
2022-08-16T08:56:22.534Z,2404.00
2022-08-16T08:57:09.626Z,2436.00
2022-08-16T08:58:14.570Z,2432.00
2022-08-16T08:59:13.379Z,2436.00
2022-08-16T09:00:13.546Z,2440.00
2022-08-16T09:01:08.106Z,2436.00
2022-08-16T09:02:08.118Z,2432.00
2022-08-16T09:03:08.405Z,2476.00
2022-08-16T09:04:17.409Z,2500.00
2022-08-16T09:05:15.753Z,2540.00
2022-08-16T09:06:09.504Z,2516.00
2022-08-16T09:07:08.030Z,2504.00
2022-08-16T09:08:09.071Z,2468.00
2022-08-16T09:09:18.516Z,2480.00
2022-08-16T09:10:20.805Z,2464.00
2022-08-16T09:11:09.626Z,2460.00
2022-08-16T09:12:09.545Z,2492.00
2022-08-16T09:13:10.633Z,2496.00
2022-08-16T09:14:24.557Z,2520.00
2022-08-16T09:15:11.568Z,2532.00
2022-08-16T09:16:07.874Z,2532.00
2022-08-16T09:17:21.504Z,2516.00
2022-08-16T09:18:24.927Z,2544.00
2022-08-16T09:19:15.877Z,2540.00
2022-08-16T09:20:07.817Z,2556.00
2022-08-16T09:21:09.253Z,2552.00
2022-08-16T09:22:07.956Z,2556.00
2022-08-16T09:23:09.592Z,2584.00
2022-08-16T09:24:19.784Z,2596.00
2022-08-16T09:25:11.145Z,2620.00
2022-08-16T09:26:43.065Z,2640.00
2022-08-16T09:27:09.055Z,2656.00
2022-08-16T09:28:09.384Z,2704.00
2022-08-16T09:29:24.275Z,2784.00
2022-08-16T09:30:33.245Z,2696.00
2022-08-16T09:31:08.673Z,2700.00
2022-08-16T09:32:08.258Z,2680.00
2022-08-16T09:33:12.847Z,2680.00
2022-08-16T09:34:07.650Z,2748.00
2022-08-16T09:35:13.969Z,2776.00
2022-08-16T09:36:11.786Z,2768.00
2022-08-16T09:37:18.130Z,2780.00
2022-08-16T09:38:09.777Z,2780.00
2022-08-16T09:39:07.891Z,2772.00
2022-08-16T09:40:32.818Z,2824.00
2022-08-16T09:41:15.776Z,2848.00
2022-08-16T09:42:08.150Z,2852.00
2022-08-16T09:43:07.773Z,2852.00
2022-08-16T09:45:09.773Z,2880.00
2022-08-16T09:45:12.491Z,2880.00
2022-08-16T09:46:44.463Z,2904.00
2022-08-16T09:47:10.323Z,2988.00
2022-08-16T09:48:07.448Z,2996.00
2022-08-16T09:49:08.442Z,3036.00
2022-08-16T09:50:11.930Z,3120.00
2022-08-16T09:51:36.621Z,3280.00
2022-08-16T09:52:09.882Z,3532.00
2022-08-16T09:53:07.622Z,3696.00
2022-08-16T09:54:09.632Z,3644.00
2022-08-16T09:55:07.374Z,3460.00
2022-08-16T09:56:51.376Z,3568.00
2022-08-16T09:57:53.380Z,3396.00
2022-08-16T09:59:05.812Z,3280.00
2022-08-16T09:59:56.088Z,3296.00
2022-08-16T10:00:50.378Z,3396.00
2022-08-16T10:02:00.911Z,3568.00
2022-08-16T10:02:51.354Z,3320.00
2022-08-16T10:04:01.508Z,2744.00
2022-08-16T10:04:54.410Z,2648.00
2022-08-16T10:05:50.327Z,2476.00
2022-08-16T10:06:50.441Z,2820.00
2022-08-16T10:07:59.338Z,2872.00
2022-08-16T10:08:50.242Z,3004.00
2022-08-16T10:09:55.270Z,3124.00
2022-08-16T10:10:50.566Z,3188.00
2022-08-16T10:11:51.252Z,3320.00
2022-08-16T10:12:55.701Z,3452.00
2022-08-16T10:13:57.967Z,3516.00
2022-08-16T10:14:50.294Z,3476.00
2022-08-16T10:15:55.793Z,3340.00
2022-08-16T10:16:59.631Z,3388.00
2022-08-16T10:18:00.131Z,3584.00
2022-08-16T10:19:06.748Z,3728.00
2022-08-16T10:19:51.576Z,3588.00
2022-08-16T10:20:51.240Z,4296.00
2022-08-16T10:21:56.391Z,4952.00
2022-08-16T10:22:58.802Z,5508.00
2022-08-16T10:23:57.820Z,5616.00
2022-08-16T10:25:00.067Z,5840.00
2022-08-16T10:27:18.380Z,5476.00
2022-08-16T10:27:19.702Z,4784.00
2022-08-16T10:27:56.990Z,4668.00
2022-08-16T10:28:51.467Z,5104.00
2022-08-16T10:30:00.756Z,5960.00
2022-08-16T10:30:56.618Z,5888.00
2022-08-16T10:31:53.606Z,5128.00
2022-08-16T10:32:51.133Z,5064.00
2022-08-16T10:33:49.928Z,6016.00
2022-08-16T10:34:51.310Z,6012.00
2022-08-16T10:36:03.143Z,6200.00
2022-08-16T10:36:54.156Z,6400.00
2022-08-16T10:37:50.034Z,6012.00
2022-08-16T10:38:49.852Z,5828.00
2022-08-16T10:39:49.876Z,5708.00
2022-08-16T10:40:51.359Z,4880.00
2022-08-16T10:41:56.172Z,3940.00
2022-08-16T10:42:50.314Z,3300.00
2022-08-16T10:43:50.337Z,3084.00
2022-08-16T10:44:53.813Z,3044.00
2022-08-16T10:46:00.502Z,3120.00
2022-08-16T10:46:51.299Z,3032.00
2022-08-16T10:48:00.615Z,3412.00
2022-08-16T10:48:51.209Z,3856.00
2022-08-16T10:49:49.721Z,4660.00
2022-08-16T10:50:49.695Z,4936.00
2022-08-16T10:52:03.255Z,4860.00
2022-08-16T10:52:51.879Z,4844.00
2022-08-16T10:53:57.485Z,4752.00
2022-08-16T10:55:57.444Z,4624.00
2022-08-16T10:56:55.674Z,4888.00
2022-08-16T10:57:50.724Z,4680.00
2022-08-16T10:58:56.066Z,4792.00
2022-08-16T10:59:53.203Z,5168.00
2022-08-16T11:00:55.466Z,5344.00
2022-08-16T11:02:59.479Z,5108.00
2022-08-16T11:03:54.429Z,4996.00
2022-08-16T11:05:07.072Z,4884.00
2022-08-16T11:06:07.596Z,4764.00
2022-08-16T11:07:08.385Z,4872.00
2022-08-16T11:07:53.768Z,5328.00
2022-08-16T11:09:21.043Z,5540.00
2022-08-16T11:09:53.222Z,5932.00
2022-08-16T11:11:07.025Z,5472.00
2022-08-16T11:12:52.889Z,5592.00
2022-08-16T11:13:58.174Z,5896.00
2022-08-16T11:15:58.072Z,5592.00
2022-08-16T11:17:11.085Z,5836.00
2022-08-16T11:18:48.952Z,5552.00
2022-08-16T11:19:06.019Z,5344.00
2022-08-16T11:20:57.566Z,5220.00
2022-08-16T11:22:50.549Z,5648.00
2022-08-16T11:23:57.957Z,5892.00
2022-08-16T11:25:11.951Z,5792.00
2022-08-16T11:26:06.514Z,5324.00
2022-08-16T11:27:51.480Z,5564.00
2022-08-16T11:29:52.137Z,5500.00
2022-08-16T11:30:54.826Z,6100.00
2022-08-16T11:31:54.379Z,7236.00
2022-08-16T11:32:55.513Z,7264.00
2022-08-16T11:33:52.515Z,6756.00
2022-08-16T11:35:10.681Z,6340.00
2022-08-16T11:36:59.799Z,5432.00
2022-08-16T11:38:47.424Z,4916.00
2022-08-16T11:38:56.973Z,4284.00
2022-08-16T11:39:55.351Z,3808.00
2022-08-16T11:40:52.626Z,3604.00
2022-08-16T11:41:49.261Z,3960.00
2022-08-16T11:42:55.453Z,4928.00
2022-08-16T11:43:50.249Z,5028.00
2022-08-16T11:44:52.705Z,5152.00
2022-08-16T11:45:54.223Z,5516.00
2022-08-16T11:46:49.160Z,5808.00
2022-08-16T11:47:50.922Z,5848.00
2022-08-16T11:48:55.250Z,5796.00
2022-08-16T11:49:48.975Z,6064.00
2022-08-16T11:50:48.916Z,6536.00
2022-08-16T11:51:48.902Z,6928.00
2022-08-16T11:52:49.713Z,7016.00
2022-08-16T11:53:48.903Z,6860.00
2022-08-16T11:54:57.183Z,6036.00
2022-08-16T11:55:50.738Z,6072.00
2022-08-16T11:56:52.721Z,5416.00
2022-08-16T11:57:56.279Z,5320.00
2022-08-16T11:58:51.504Z,5404.00
2022-08-16T11:59:50.343Z,5576.00
2022-08-16T12:00:55.135Z,5864.00
2022-08-16T12:01:59.325Z,6672.00
2022-08-16T12:02:50.330Z,6976.00
2022-08-16T12:03:48.799Z,7112.00
2022-08-16T12:04:51.664Z,7284.00
2022-08-16T12:05:55.029Z,6916.00
2022-08-16T12:06:49.070Z,7376.00
2022-08-16T12:07:48.836Z,7644.00
2022-08-16T12:08:48.716Z,8104.00
2022-08-16T12:09:48.716Z,8032.00
2022-08-16T12:10:55.017Z,7208.00
2022-08-16T12:11:53.008Z,6392.00
2022-08-16T12:12:48.687Z,5768.00
2022-08-16T12:13:48.651Z,5156.00
2022-08-16T12:14:48.613Z,5460.00
2022-08-16T12:15:55.038Z,5108.00
2022-08-16T12:16:55.816Z,5832.00
2022-08-16T12:17:50.290Z,6488.00
2022-08-16T12:19:54.866Z,6060.00
2022-08-16T12:20:48.632Z,5584.00
2022-08-16T12:21:59.307Z,5500.00
2022-08-16T12:22:48.659Z,5684.00
2022-08-16T12:23:48.940Z,6684.00
2022-08-16T12:24:52.067Z,7216.00
2022-08-16T12:25:48.482Z,7488.00
2022-08-16T12:26:54.963Z,7572.00
2022-08-16T12:27:49.711Z,7292.00
2022-08-16T12:28:54.611Z,7460.00
2022-08-16T12:29:49.915Z,7292.00
2022-08-16T12:30:48.438Z,6576.00
2022-08-16T12:32:00.567Z,5824.00
2022-08-16T12:32:52.971Z,5696.00
2022-08-16T12:33:50.771Z,5332.00
2022-08-16T12:34:52.746Z,5552.00
2022-08-16T12:35:48.421Z,5072.00
2022-08-16T12:36:54.631Z,4728.00
2022-08-16T12:37:48.640Z,4536.00
2022-08-16T12:38:49.843Z,4648.00
2022-08-16T12:39:51.251Z,4668.00